createdAt,value
2019-03-22T00:02:00.294Z,99.90
2019-03-22T00:04:31.880Z,99.90
2019-03-22T00:07:02.683Z,99.90
2019-03-22T00:09:33.390Z,99.90
2019-03-22T00:12:04.462Z,99.90
2019-03-22T00:14:36.928Z,99.90
2019-03-22T00:17:07.356Z,99.90
2019-03-22T00:19:37.848Z,99.90
2019-03-22T00:22:08.995Z,99.90
2019-03-22T00:24:40.368Z,99.90
2019-03-22T00:27:16.509Z,99.90
2019-03-22T00:29:43.356Z,99.90
2019-03-22T00:32:13.877Z,99.90
2019-03-22T00:34:44.596Z,99.90
2019-03-22T00:37:17.227Z,99.90
2019-03-22T00:39:48.164Z,99.90
2019-03-22T00:42:18.564Z,99.90
2019-03-22T00:44:49.647Z,99.90
2019-03-22T00:47:20.123Z,99.90
2019-03-22T00:49:50.489Z,99.90
2019-03-22T00:52:21.151Z,99.90
2019-03-22T00:54:52.199Z,99.90
2019-03-22T00:57:28.437Z,99.90
2019-03-22T00:59:55.991Z,99.90
2019-03-22T01:02:26.546Z,99.90
2019-03-22T01:04:57.809Z,99.90
2019-03-22T01:07:28.202Z,99.90
2019-03-22T01:09:58.989Z,99.90
2019-03-22T01:12:29.338Z,99.90
2019-03-22T01:14:59.751Z,99.90
2019-03-22T01:17:30.367Z,99.90
2019-03-22T01:20:00.739Z,99.90
2019-03-22T01:22:31.101Z,99.90
2019-03-22T01:25:01.485Z,99.90
2019-03-22T01:27:40.278Z,99.90
2019-03-22T01:30:04.456Z,99.90
2019-03-22T01:32:34.852Z,99.90
2019-03-22T01:35:05.712Z,99.90
2019-03-22T01:37:36.066Z,99.90
2019-03-22T01:40:07.998Z,99.90
2019-03-22T01:42:38.935Z,99.90
2019-03-22T01:45:11.886Z,99.90
2019-03-22T01:47:42.254Z,99.90
2019-03-22T01:50:14.036Z,99.90
2019-03-22T01:52:44.612Z,99.90
2019-03-22T01:55:15.299Z,99.90
2019-03-22T01:57:53.027Z,99.90
2019-03-22T02:00:17.890Z,99.90
2019-03-22T02:02:48.401Z,99.90
2019-03-22T02:05:19.371Z,99.90
2019-03-22T02:07:50.102Z,99.90
2019-03-22T02:10:23.350Z,99.90
2019-03-22T02:12:55.339Z,99.90
2019-03-22T02:15:25.678Z,99.90
2019-03-22T02:17:55.978Z,99.90
2019-03-22T02:20:26.348Z,99.90
2019-03-22T02:22:57.068Z,99.90
2019-03-22T02:25:27.469Z,99.90
2019-03-22T02:28:04.048Z,99.90
2019-03-22T02:30:29.811Z,99.90
2019-03-22T02:33:00.778Z,99.90
2019-03-22T02:35:31.431Z,99.90
2019-03-22T02:38:02.417Z,99.90
2019-03-22T02:40:33.497Z,99.90
2019-03-22T02:43:03.975Z,99.90
2019-03-22T02:45:34.370Z,99.90
2019-03-22T02:48:04.847Z,99.90
2019-03-22T02:50:35.227Z,99.90
2019-03-22T02:53:05.730Z,99.90
2019-03-22T02:55:36.073Z,99.90
2019-03-22T02:58:19.901Z,99.90
2019-03-22T03:00:38.964Z,99.90
2019-03-22T03:03:11.131Z,99.90
2019-03-22T03:05:41.512Z,99.90
2019-03-22T03:08:11.957Z,99.90
2019-03-22T03:10:43.024Z,99.90
2019-03-22T03:13:14.092Z,99.90
2019-03-22T03:15:44.453Z,99.90
2019-03-22T03:18:15.275Z,99.90
2019-03-22T03:20:45.644Z,99.90
2019-03-22T03:23:17.215Z,99.90
2019-03-22T03:25:47.614Z,99.90
2019-03-22T03:28:17.996Z,99.90
2019-03-22T03:30:48.371Z,99.90
2019-03-22T03:33:19.280Z,99.90
2019-03-22T03:35:50.555Z,99.90
2019-03-22T03:38:21.074Z,99.90
2019-03-22T03:40:51.796Z,99.90
2019-03-22T03:43:22.767Z,99.90
2019-03-22T03:45:53.751Z,99.90
2019-03-22T03:48:26.417Z,99.90
2019-03-22T03:50:57.396Z,99.90
2019-03-22T03:53:27.811Z,99.90
2019-03-22T03:55:58.602Z,99.90
2019-03-22T03:58:29.470Z,99.90
2019-03-22T04:00:59.857Z,99.90
2019-03-22T04:03:30.314Z,99.90
2019-03-22T04:06:01.179Z,99.90
2019-03-22T04:08:31.615Z,99.90
2019-03-22T04:11:02.069Z,99.90
2019-03-22T04:13:32.504Z,99.90
2019-03-22T04:16:02.924Z,99.90
2019-03-22T04:18:33.383Z,99.90
2019-03-22T04:21:04.557Z,99.90
2019-03-22T04:23:35.013Z,99.90
2019-03-22T04:26:05.551Z,99.90
2019-03-22T04:28:36.256Z,99.90
2019-03-22T04:31:06.660Z,99.90
2019-03-22T04:33:37.440Z,99.90
2019-03-22T04:36:07.928Z,99.90
2019-03-22T04:38:38.730Z,99.90
2019-03-22T04:41:09.222Z,99.90
2019-03-22T04:43:40.172Z,99.90
2019-03-22T04:46:13.890Z,99.90
2019-03-22T04:48:44.964Z,99.90
2019-03-22T04:51:15.808Z,99.90
2019-03-22T04:53:56.323Z,99.90
2019-03-22T04:56:27.214Z,99.90
2019-03-22T04:59:01.723Z,99.90
2019-03-22T05:01:33.622Z,99.90
2019-03-22T05:04:06.275Z,99.90
2019-03-22T05:06:41.379Z,99.90
2019-03-22T05:09:14.582Z,99.90
2019-03-22T05:11:47.782Z,99.90
2019-03-22T05:14:20.478Z,99.90
2019-03-22T05:16:53.589Z,99.90
2019-03-22T05:19:27.664Z,99.90
2019-03-22T05:22:00.760Z,99.90
2019-03-22T05:24:33.994Z,99.90
2019-03-22T05:27:05.600Z,99.90
2019-03-22T05:29:38.891Z,99.90
2019-03-22T05:32:19.772Z,99.90
2019-03-22T05:34:53.111Z,99.90
2019-03-22T05:37:23.845Z,99.90
2019-03-22T05:39:54.660Z,99.90
2019-03-22T05:42:25.608Z,99.90
2019-03-22T05:44:56.913Z,99.90
2019-03-22T05:47:27.292Z,99.90
2019-03-22T05:49:57.700Z,99.90
2019-03-22T05:52:28.094Z,99.90
2019-03-22T05:54:58.751Z,99.90
2019-03-22T05:57:29.515Z,99.90
2019-03-22T06:00:00.687Z,99.90
2019-03-22T06:02:32.321Z,99.90
2019-03-22T06:05:02.698Z,99.90
2019-03-22T06:07:33.119Z,99.90
2019-03-22T06:10:04.082Z,99.90
2019-03-22T06:12:34.591Z,99.90
2019-03-22T06:15:06.284Z,99.90
2019-03-22T06:17:37.019Z,99.90
2019-03-22T06:20:08.212Z,99.90
2019-03-22T06:22:38.669Z,99.90
2019-03-22T06:25:09.565Z,99.90
2019-03-22T06:27:40.019Z,99.90
2019-03-22T06:30:10.979Z,99.90
2019-03-22T06:32:42.102Z,99.90
2019-03-22T06:35:12.578Z,99.90
2019-03-22T06:37:42.954Z,99.90
2019-03-22T06:40:14.327Z,99.90
2019-03-22T06:42:44.726Z,99.90
2019-03-22T06:45:15.263Z,99.90
2019-03-22T06:47:45.985Z,99.90
2019-03-22T06:50:17.290Z,99.90
2019-03-22T06:52:47.754Z,99.90
2019-03-22T06:55:18.160Z,99.90
2019-03-22T06:57:49.088Z,99.90
2019-03-22T07:00:19.500Z,99.90
2019-03-22T07:02:49.911Z,99.90
2019-03-22T07:05:20.625Z,99.90
2019-03-22T07:07:51.484Z,99.90
2019-03-22T07:10:23.084Z,99.90
2019-03-22T07:12:53.432Z,99.90
2019-03-22T07:15:24.526Z,99.90
2019-03-22T07:17:55.293Z,99.90
2019-03-22T07:20:26.131Z,99.90
2019-03-22T07:22:56.970Z,99.90
2019-03-22T07:25:27.403Z,99.90
2019-03-22T07:27:58.688Z,99.90
2019-03-22T07:30:29.489Z,99.90
2019-03-22T07:33:00.176Z,99.90
2019-03-22T07:35:30.531Z,99.90
2019-03-22T07:38:03.374Z,99.90
2019-03-22T07:40:34.101Z,99.90
2019-03-22T07:43:07.062Z,99.90
2019-03-22T07:45:37.565Z,99.90
2019-03-22T07:48:11.242Z,99.90
2019-03-22T07:50:41.599Z,99.90
2019-03-22T07:53:12.433Z,99.90
2019-03-22T07:55:43.140Z,99.90
2019-03-22T07:58:13.631Z,99.90
2019-03-22T08:00:44.451Z,99.90
2019-03-22T08:03:15.258Z,99.90
2019-03-22T08:05:50.783Z,99.90
2019-03-22T08:08:24.823Z,99.90
2019-03-22T08:10:55.237Z,99.90
2019-03-22T08:13:26.053Z,99.90
2019-03-22T08:15:57.811Z,99.90
2019-03-22T08:18:28.253Z,99.90
2019-03-22T08:21:00.740Z,99.40
2019-03-22T08:23:31.644Z,99.10
2019-03-22T08:26:02.557Z,97.90
2019-03-22T08:28:33.043Z,97.20
2019-03-22T08:31:05.583Z,97.60
2019-03-22T08:33:36.398Z,97.60
2019-03-22T08:36:07.885Z,97.20
2019-03-22T08:38:39.521Z,96.50
2019-03-22T08:41:10.762Z,95.20
2019-03-22T08:43:41.156Z,95.00
2019-03-22T08:46:11.939Z,95.00
2019-03-22T08:48:42.418Z,94.40
2019-03-22T08:51:13.082Z,92.90
2019-03-22T08:53:54.658Z,92.10
2019-03-22T08:56:16.837Z,92.20
2019-03-22T08:58:47.384Z,91.40
2019-03-22T09:01:17.874Z,91.90
2019-03-22T09:03:48.568Z,93.20
2019-03-22T09:06:18.986Z,92.20
2019-03-22T09:08:49.943Z,92.80
2019-03-22T09:11:21.001Z,92.50
2019-03-22T09:13:53.746Z,92.80
2019-03-22T09:16:24.545Z,92.10
2019-03-22T09:19:01.000Z,91.80
2019-03-22T09:21:32.469Z,91.70
2019-03-22T09:24:02.886Z,90.50
2019-03-22T09:26:33.589Z,90.50
2019-03-22T09:29:03.952Z,90.60
2019-03-22T09:31:34.314Z,90.40
2019-03-22T09:34:05.404Z,91.90
2019-03-22T09:36:35.832Z,90.20
2019-03-22T09:39:09.148Z,91.00
2019-03-22T09:41:41.449Z,91.50
2019-03-22T09:44:13.028Z,91.30
2019-03-22T09:46:43.888Z,90.50
2019-03-22T09:49:15.193Z,91.10
2019-03-22T09:51:45.862Z,90.90
2019-03-22T09:54:16.268Z,91.10
2019-03-22T09:56:47.587Z,90.60
2019-03-22T09:59:18.251Z,90.50
2019-03-22T10:01:48.601Z,91.20
2019-03-22T10:04:19.315Z,88.90
2019-03-22T10:06:50.850Z,90.90
2019-03-22T10:09:24.597Z,90.10
2019-03-22T10:11:56.079Z,90.10
2019-03-22T10:14:26.478Z,90.20
2019-03-22T10:16:57.202Z,90.30
2019-03-22T10:19:28.302Z,89.30
2019-03-22T10:21:59.174Z,90.20
2019-03-22T10:24:29.763Z,90.90
2019-03-22T10:27:00.568Z,90.70
2019-03-22T10:29:31.956Z,90.90
2019-03-22T10:32:03.621Z,90.40
2019-03-22T10:34:34.399Z,91.80
2019-03-22T10:37:04.719Z,91.50
2019-03-22T10:39:35.047Z,91.70
2019-03-22T10:42:05.432Z,90.50
2019-03-22T10:44:36.153Z,91.50
2019-03-22T10:47:08.422Z,91.00
2019-03-22T10:49:41.806Z,91.70
2019-03-22T10:52:11.066Z,90.60
2019-03-22T10:54:41.831Z,89.80
2019-03-22T10:57:12.149Z,89.80
2019-03-22T10:59:43.023Z,91.10
2019-03-22T11:02:13.963Z,90.10
2019-03-22T11:04:45.722Z,88.70
2019-03-22T11:07:16.443Z,89.80
2019-03-22T11:09:46.830Z,90.70
2019-03-22T11:12:19.293Z,89.80
2019-03-22T11:14:50.595Z,88.40
2019-03-22T11:17:21.371Z,87.90
2019-03-22T11:19:52.039Z,88.00
2019-03-22T11:22:22.646Z,88.40
2019-03-22T11:24:53.930Z,89.10
2019-03-22T11:27:24.474Z,88.10
2019-03-22T11:29:55.226Z,89.60
2019-03-22T11:32:25.807Z,88.40
2019-03-22T11:34:56.137Z,87.00
2019-03-22T11:37:26.488Z,86.80
2019-03-22T11:40:00.489Z,88.30
2019-03-22T11:42:31.002Z,87.30
2019-03-22T11:45:01.704Z,88.70
2019-03-22T11:47:32.207Z,87.50
2019-03-22T11:50:02.917Z,87.20
2019-03-22T11:52:33.825Z,86.90
2019-03-22T11:55:05.156Z,88.70
2019-03-22T11:57:35.934Z,86.00
2019-03-22T12:00:13.893Z,87.20
2019-03-22T12:02:44.372Z,88.40
2019-03-22T12:05:15.753Z,85.00
2019-03-22T12:07:46.656Z,85.50
2019-03-22T12:10:17.924Z,85.40
2019-03-22T12:12:48.982Z,87.40
2019-03-22T12:15:20.225Z,86.60
2019-03-22T12:17:50.813Z,85.00
2019-03-22T12:20:21.886Z,82.40
2019-03-22T12:22:52.387Z,82.20
2019-03-22T12:25:23.227Z,81.10
2019-03-22T12:27:54.157Z,82.40
2019-03-22T12:30:24.712Z,84.30
2019-03-22T12:32:55.457Z,81.20
2019-03-22T12:35:26.399Z,79.80
2019-03-22T12:37:57.814Z,81.20
2019-03-22T12:40:28.511Z,79.70
2019-03-22T12:42:59.363Z,78.40
2019-03-22T12:45:30.876Z,77.50
2019-03-22T12:48:01.953Z,79.00
2019-03-22T12:50:32.855Z,78.20
2019-03-22T12:53:03.353Z,75.60
2019-03-22T12:55:34.703Z,77.10
2019-03-22T12:58:08.353Z,76.20
2019-03-22T13:00:39.322Z,73.80
2019-03-22T13:03:10.715Z,75.10
2019-03-22T13:05:41.666Z,73.10
2019-03-22T13:08:12.874Z,71.80
2019-03-22T13:10:43.386Z,72.30
2019-03-22T13:13:14.336Z,71.40
2019-03-22T13:15:44.698Z,70.70
2019-03-22T13:18:15.763Z,71.70
2019-03-22T13:20:46.982Z,70.60
2019-03-22T13:23:17.953Z,68.60
2019-03-22T13:25:48.406Z,70.10
2019-03-22T13:28:18.883Z,69.00
2019-03-22T13:30:50.651Z,69.70
2019-03-22T13:33:22.134Z,69.90
2019-03-22T13:35:53.373Z,70.80
2019-03-22T13:38:24.470Z,69.80
2019-03-22T13:40:54.854Z,69.10
2019-03-22T13:43:25.722Z,68.70
2019-03-22T13:45:56.599Z,68.80
2019-03-22T13:48:27.440Z,67.80
2019-03-22T13:50:57.755Z,67.90
2019-03-22T13:53:29.038Z,67.10
2019-03-22T13:56:00.072Z,69.10
2019-03-22T13:58:30.433Z,66.80
2019-03-22T14:01:02.072Z,66.00
2019-03-22T14:03:33.286Z,67.50
2019-03-22T14:06:04.524Z,67.50
2019-03-22T14:08:35.363Z,66.40
2019-03-22T14:11:06.925Z,64.30
2019-03-22T14:13:39.670Z,64.70
2019-03-22T14:16:09.888Z,63.80
2019-03-22T14:18:41.235Z,63.60
2019-03-22T14:21:11.949Z,63.60
2019-03-22T14:23:42.747Z,62.70
2019-03-22T14:26:13.497Z,61.50
2019-03-22T14:28:43.834Z,62.10
2019-03-22T14:31:14.790Z,62.10
2019-03-22T14:33:45.732Z,60.10
2019-03-22T14:36:16.250Z,60.60
2019-03-22T14:38:47.254Z,59.80
2019-03-22T14:41:17.662Z,59.30
2019-03-22T14:43:48.110Z,59.40
2019-03-22T14:46:18.850Z,58.90
2019-03-22T14:48:49.689Z,59.20
2019-03-22T14:51:20.320Z,58.70
2019-03-22T14:53:50.697Z,57.80
2019-03-22T14:56:21.082Z,58.00
2019-03-22T14:58:52.525Z,59.00
2019-03-22T15:01:22.823Z,59.10
2019-03-22T15:03:53.132Z,59.60
2019-03-22T15:06:24.396Z,59.50
2019-03-22T15:08:56.968Z,59.70
2019-03-22T15:11:27.721Z,59.80
2019-03-22T15:14:04.001Z,60.20
2019-03-22T15:16:56.895Z,58.10
2019-03-22T15:19:44.974Z,59.40
2019-03-22T15:22:40.042Z,60.30
2019-03-22T15:25:44.407Z,60.00
2019-03-22T15:28:37.019Z,61.40
2019-03-22T15:31:32.651Z,63.60
2019-03-22T15:34:27.419Z,62.40
2019-03-22T15:37:22.124Z,63.10
2019-03-22T15:40:00.755Z,62.50
2019-03-22T15:42:31.987Z,62.40
2019-03-22T15:45:03.626Z,63.30
2019-03-22T15:47:34.107Z,64.20
2019-03-22T15:50:04.650Z,63.50
2019-03-22T15:52:35.998Z,63.90
2019-03-22T15:55:08.710Z,64.60
2019-03-22T15:57:39.712Z,65.20
2019-03-22T16:00:13.238Z,65.00
2019-03-22T16:02:44.338Z,65.10
2019-03-22T16:05:15.426Z,65.10
2019-03-22T16:07:45.885Z,65.00
2019-03-22T16:10:16.277Z,65.70
2019-03-22T16:12:46.975Z,65.90
2019-03-22T16:15:18.316Z,66.60
2019-03-22T16:17:49.090Z,67.90
2019-03-22T16:20:21.749Z,68.20
2019-03-22T16:22:52.281Z,68.90
2019-03-22T16:25:23.842Z,67.90
2019-03-22T16:27:54.801Z,68.40
2019-03-22T16:30:26.207Z,69.90
2019-03-22T16:32:56.656Z,69.70
2019-03-22T16:35:28.240Z,69.40
2019-03-22T16:37:59.711Z,70.20
2019-03-22T16:40:31.150Z,70.80
2019-03-22T16:43:01.888Z,70.90
2019-03-22T16:45:43.108Z,71.40
2019-03-22T16:48:13.608Z,74.10
2019-03-22T16:50:44.078Z,73.10
2019-03-22T16:53:14.759Z,73.60
2019-03-22T16:55:45.962Z,75.40
2019-03-22T16:58:16.416Z,75.10
2019-03-22T17:00:49.751Z,75.50
2019-03-22T17:03:20.159Z,76.10
2019-03-22T17:05:50.736Z,75.70
2019-03-22T17:08:23.702Z,76.90
2019-03-22T17:10:54.505Z,76.20
2019-03-22T17:13:24.955Z,77.00
2019-03-22T17:15:55.959Z,78.00
2019-03-22T17:18:26.531Z,78.60
2019-03-22T17:20:57.467Z,79.10
2019-03-22T17:23:28.833Z,80.90
2019-03-22T17:25:59.636Z,79.60
2019-03-22T17:28:30.026Z,81.80
2019-03-22T17:31:01.066Z,81.80
2019-03-22T17:33:32.732Z,82.40
2019-03-22T17:36:03.620Z,82.80
2019-03-22T17:38:34.311Z,84.00
2019-03-22T17:41:04.930Z,84.60
2019-03-22T17:43:35.692Z,86.00
2019-03-22T17:46:06.778Z,88.00
2019-03-22T17:48:37.867Z,87.80
2019-03-22T17:51:09.497Z,88.00
2019-03-22T17:53:40.728Z,88.50
2019-03-22T17:56:12.259Z,89.10
2019-03-22T17:58:43.539Z,88.40
2019-03-22T18:01:14.315Z,89.20
2019-03-22T18:03:45.282Z,89.10
2019-03-22T18:06:16.485Z,90.10
2019-03-22T18:08:46.900Z,90.10
2019-03-22T18:11:18.155Z,90.50
2019-03-22T18:13:48.577Z,90.80
2019-03-22T18:16:18.952Z,91.10
2019-03-22T18:18:49.848Z,91.10
2019-03-22T18:21:20.246Z,91.80
2019-03-22T18:23:51.710Z,92.10
2019-03-22T18:26:22.841Z,92.20
2019-03-22T18:28:53.326Z,92.60
2019-03-22T18:31:25.217Z,92.90
2019-03-22T18:33:56.483Z,92.80
2019-03-22T18:36:27.287Z,92.90
2019-03-22T18:38:58.214Z,93.10
2019-03-22T18:41:28.607Z,93.60
2019-03-22T18:43:59.520Z,93.90
2019-03-22T18:46:29.886Z,94.40
2019-03-22T18:49:00.264Z,94.80
2019-03-22T18:51:30.958Z,95.00
2019-03-22T18:54:01.859Z,95.40
2019-03-22T18:56:32.266Z,96.10
2019-03-22T18:59:02.688Z,96.30
2019-03-22T19:01:33.419Z,96.70
2019-03-22T19:04:04.338Z,97.10
2019-03-22T19:06:34.695Z,97.40
2019-03-22T19:09:07.458Z,97.70
2019-03-22T19:11:38.654Z,98.30
2019-03-22T19:14:09.437Z,98.70
2019-03-22T19:16:40.966Z,99.20
2019-03-22T19:19:11.876Z,99.50
2019-03-22T19:21:42.879Z,99.80
2019-03-22T19:24:16.490Z,99.90
2019-03-22T19:26:47.687Z,99.90
2019-03-22T19:29:22.149Z,99.90
2019-03-22T19:31:54.079Z,99.90
2019-03-22T19:34:27.571Z,99.90
2019-03-22T19:37:00.817Z,99.90
2019-03-22T19:39:34.450Z,99.90
2019-03-22T19:42:06.618Z,99.90
2019-03-22T19:44:38.036Z,99.90
2019-03-22T19:47:12.898Z,99.90
2019-03-22T19:49:45.703Z,99.90
2019-03-22T19:52:18.119Z,99.90
2019-03-22T19:54:50.066Z,99.90
2019-03-22T19:57:23.090Z,99.90
2019-03-22T19:59:54.781Z,99.90
2019-03-22T20:02:26.954Z,99.90
2019-03-22T20:05:04.713Z,99.90
2019-03-22T20:07:36.402Z,99.90
2019-03-22T20:10:10.885Z,99.90
2019-03-22T20:12:43.878Z,99.90
2019-03-22T20:15:16.460Z,99.90
2019-03-22T20:17:48.296Z,99.90
2019-03-22T20:20:22.762Z,99.90
2019-03-22T20:22:57.953Z,99.90
2019-03-22T20:25:31.990Z,99.90
2019-03-22T20:28:04.480Z,99.90
2019-03-22T20:30:35.903Z,99.90
2019-03-22T20:33:11.213Z,99.90
2019-03-22T20:35:43.367Z,99.90
2019-03-22T20:38:15.647Z,99.90
2019-03-22T20:40:48.044Z,99.90
2019-03-22T20:43:21.179Z,99.90
2019-03-22T20:45:53.207Z,99.90
2019-03-22T20:48:24.439Z,99.90
2019-03-22T20:50:57.813Z,99.90
2019-03-22T20:53:29.039Z,99.90
2019-03-22T20:56:01.570Z,99.90
2019-03-22T20:58:34.684Z,99.90
2019-03-22T21:01:05.991Z,99.90
2019-03-22T21:03:38.026Z,99.90
2019-03-22T21:06:08.430Z,99.90
2019-03-22T21:08:39.682Z,99.90
2019-03-22T21:11:11.391Z,99.90
2019-03-22T21:13:42.155Z,99.90
2019-03-22T21:16:15.884Z,99.90
2019-03-22T21:18:46.311Z,99.90
2019-03-22T21:21:17.033Z,99.90
2019-03-22T21:23:48.105Z,99.90
2019-03-22T21:26:23.558Z,99.90
2019-03-22T21:28:55.487Z,99.90
2019-03-22T21:31:26.815Z,99.90
2019-03-22T21:33:58.163Z,99.90
2019-03-22T21:36:30.570Z,99.90
2019-03-22T21:39:01.631Z,99.90
2019-03-22T21:41:32.842Z,99.90
2019-03-22T21:44:05.155Z,99.90
2019-03-22T21:46:37.541Z,99.90
2019-03-22T21:49:08.816Z,99.90
2019-03-22T21:51:40.087Z,99.90
2019-03-22T21:54:11.453Z,99.90
2019-03-22T21:56:43.225Z,99.90
2019-03-22T21:59:14.747Z,99.90
2019-03-22T22:01:46.567Z,99.90
2019-03-22T22:04:18.170Z,99.90
2019-03-22T22:06:49.719Z,99.90
2019-03-22T22:09:22.588Z,99.90
2019-03-22T22:11:53.207Z,99.90
2019-03-22T22:14:27.542Z,99.90
2019-03-22T22:16:58.228Z,99.90
2019-03-22T22:19:30.165Z,99.90
2019-03-22T22:22:00.921Z,99.90
2019-03-22T22:24:31.689Z,99.90
2019-03-22T22:27:13.232Z,99.90
2019-03-22T22:29:36.487Z,99.90
2019-03-22T22:32:07.337Z,99.90
2019-03-22T22:34:38.938Z,99.90
2019-03-22T22:37:09.987Z,99.90
2019-03-22T22:39:41.214Z,99.90
2019-03-22T22:42:12.508Z,99.90
2019-03-22T22:44:43.222Z,99.90
2019-03-22T22:47:14.187Z,99.90
2019-03-22T22:49:44.923Z,99.90
2019-03-22T22:52:15.705Z,99.90
2019-03-22T22:54:47.966Z,99.90
2019-03-22T22:57:19.553Z,99.90
2019-03-22T22:59:50.563Z,99.90
2019-03-22T23:02:22.219Z,99.90
2019-03-22T23:04:53.293Z,99.90
2019-03-22T23:07:26.315Z,99.90
2019-03-22T23:09:57.451Z,99.90
2019-03-22T23:12:27.927Z,99.90
2019-03-22T23:14:58.342Z,99.90
2019-03-22T23:17:29.055Z,99.90
2019-03-22T23:19:59.996Z,99.90
2019-03-22T23:22:30.871Z,99.90
2019-03-22T23:25:02.769Z,99.90
2019-03-22T23:27:33.210Z,99.90
2019-03-22T23:30:04.655Z,99.90
2019-03-22T23:32:35.099Z,99.90
2019-03-22T23:35:05.609Z,99.90
2019-03-22T23:37:36.135Z,99.90
2019-03-22T23:40:07.895Z,99.90
2019-03-22T23:42:38.305Z,99.90
2019-03-22T23:45:09.318Z,99.90
2019-03-22T23:47:39.718Z,99.90
2019-03-22T23:50:17.450Z,99.90
2019-03-22T23:52:47.927Z,99.90
2019-03-22T23:55:18.361Z,99.90
2019-03-22T23:57:48.890Z,99.90
